createdAt,value
2022-12-22T00:00:34.575Z,1014.0
2022-12-22T00:15:23.586Z,1014.0
2022-12-22T00:30:23.469Z,1014.0
2022-12-22T00:45:23.484Z,1014.0
2022-12-22T01:00:23.671Z,1014.0
2022-12-22T01:15:23.776Z,1014.0
2022-12-22T01:30:24.010Z,1014.0
2022-12-22T01:45:23.860Z,1014.0
2022-12-22T02:00:28.972Z,1013.7
2022-12-22T02:15:23.681Z,1013.0
2022-12-22T02:30:23.971Z,1013.0
2022-12-22T02:45:24.021Z,1013.0
2022-12-22T03:00:24.028Z,1013.0
2022-12-22T03:15:23.912Z,1013.0
2022-12-22T03:30:24.032Z,1013.0
2022-12-22T03:45:24.005Z,1013.0
2022-12-22T04:00:29.091Z,1012.5
2022-12-22T04:15:23.995Z,1012.0
2022-12-22T04:30:24.006Z,1012.0
2022-12-22T04:45:23.870Z,1012.0
2022-12-22T05:00:33.173Z,1012.0
2022-12-22T05:15:23.963Z,1012.0
2022-12-22T05:30:24.311Z,1012.0
2022-12-22T05:45:24.018Z,1012.0
2022-12-22T06:00:30.483Z,1012.0
2022-12-22T06:15:25.479Z,1012.0
2022-12-22T06:30:30.949Z,1012.0
2022-12-22T06:45:24.170Z,1012.0
2022-12-22T07:00:37.257Z,1012.0
2022-12-22T07:15:24.250Z,1012.0
2022-12-22T07:30:24.024Z,1012.5
2022-12-22T07:45:33.255Z,1012.0
2022-12-22T08:00:33.920Z,1012.7
2022-12-22T08:15:23.656Z,1013.0
2022-12-22T08:30:23.482Z,1013.0
2022-12-22T08:45:23.290Z,1013.0
2022-12-22T09:00:29.889Z,1013.0
2022-12-22T09:15:24.104Z,1013.0
2022-12-22T09:30:23.418Z,1013.0
2022-12-22T09:45:23.448Z,1013.0
2022-12-22T10:00:33.795Z,1013.0
2022-12-22T10:15:23.612Z,1013.0
2022-12-22T10:30:25.012Z,1013.0
2022-12-22T10:45:23.530Z,1013.0
2022-12-22T11:00:26.340Z,1013.0
2022-12-22T11:15:24.851Z,1013.0
2022-12-22T11:30:26.589Z,1013.0
2022-12-22T11:45:23.663Z,1013.0
2022-12-22T12:01:11.827Z,1013.0
2022-12-22T12:15:23.555Z,1013.0
2022-12-22T12:30:38.808Z,1014.0
2022-12-22T12:45:23.876Z,1014.0
2022-12-22T13:00:26.377Z,1014.0
2022-12-22T13:15:23.637Z,1014.0
2022-12-22T13:30:23.757Z,1014.0
2022-12-22T13:45:23.764Z,1014.0
2022-12-22T14:00:26.316Z,1014.7
2022-12-22T14:15:23.831Z,1014.7
2022-12-22T14:30:30.991Z,1015.0
2022-12-22T14:45:23.897Z,1015.0
2022-12-22T15:00:34.511Z,1015.0
2022-12-22T15:15:24.241Z,1015.0
2022-12-22T15:30:28.914Z,1015.0
2022-12-22T15:45:24.131Z,1015.0
2022-12-22T16:00:27.731Z,1015.0
2022-12-22T16:15:24.744Z,1015.0
2022-12-22T16:30:29.666Z,1015.0
2022-12-22T16:45:24.049Z,1015.0
2022-12-22T17:00:35.873Z,1015.0
2022-12-22T17:15:23.606Z,1015.0
2022-12-22T17:30:23.301Z,1015.0
2022-12-22T17:45:23.655Z,1014.0
2022-12-22T18:00:23.697Z,1014.0
2022-12-22T18:15:23.271Z,1014.0
2022-12-22T18:30:23.494Z,1014.0
2022-12-22T18:45:23.363Z,1013.0
2022-12-22T19:00:33.391Z,1013.0
2022-12-22T19:15:23.559Z,1013.0
2022-12-22T19:30:24.050Z,1013.0
2022-12-22T19:45:23.519Z,1013.0
2022-12-22T20:00:28.969Z,1013.0
2022-12-22T20:15:23.733Z,1013.0
2022-12-22T20:30:23.819Z,1013.0
2022-12-22T20:45:23.698Z,1012.3
2022-12-22T21:00:38.971Z,1012.0
2022-12-22T21:15:23.962Z,1012.0
2022-12-22T21:30:25.000Z,1012.0
2022-12-22T21:45:23.801Z,1012.0
2022-12-22T22:00:27.516Z,1011.3
2022-12-22T22:15:23.984Z,1011.0
2022-12-22T22:30:24.591Z,1010.0
2022-12-22T22:45:24.403Z,1010.0
2022-12-22T23:03:09.171Z,1010.0
2022-12-22T23:15:23.797Z,1010.0
2022-12-22T23:30:23.829Z,1010.0
2022-12-22T23:45:23.965Z,1010.0
